Terminal Aerodrome Forecast
Issued by NWS

Home | Current Version | Previous Version | Text Only | Print | Product List | Glossary On
Versions: 1 2 3 4 5 6 7 8 9 10 11 12 13 14 15 16 17
000
FTUS41 KGYX 161128
TAFRKD
TAF
KRKD 161128Z 1612/1712 23005KT P6SM -SHRA SCT070 BKN100
     FM161500 20007KT P6SM -SHRA BKN035 OVC050
     FM162000 21004KT P6SM BKN050 OVC100
      AMD LTD TO CLD VIS AND WIND=

USA.gov is the U.S. government's official web portal to all federal, state and local government web resources and services.